Главная страница
METAR-TAF:

METAR-TAF

Аэропорты :

Актобе, Казахстан

широта: 50-17N, долгота: 057-09E, высота над уровнем моря: 227 м

Текущие метеонаблюдения

Эта сводка был подготовлена 31 минут назад, в 05:00 UTC
Ветер 10 Узел от восточный
Температура -2°C
Влажность 80%
Давление 1023 hPa
Видимость 10 км и более
Сплошная облачность на высоте 2400 фута

METAR: UATT 190500Z 09005MPS 9999 OVC024 M02/M05 Q1023 R13/810255 NOSIG RMK QFE747/0997

Время: 10:31 (05:31 UTC)

Прогноз

Эта сводка был подготовлена 6 часа и 31 минут назад, в 23:00 UTC
Прогноз действительный с 19-го 00 UTC до 19-го 24 UTC
Ветер 10 Узел от восточно-северо-восточный
Видимость 10 км и более
Рассеянная облачность на высоте 1100 фута
временами
С 19-го 00 UTC до 19-го 12 UTC
Видимость: 3100 м
Отдельные облака на высоте 500 фута
дымка

TAF: UATT 182300Z 1900/1924 07005MPS 9999 BKN011 TX03/1911Z TNM05/1924Z TEMPO 1900/1912 3100 BR SCT005

Метеонаблюдения и прогнозы для более 4000 аэропортов (сводки METAR и TAF).

Имеющиеся станции представлены на карте желтыми и красными точками.

Чтобы увидеть название станции, наведите на нее мышь.

Затем щелкните, чтобы увидеть метеонаблюдения и метеопрогнозы.

Управление картой: чтобы увеличить масштаб, щелкните зеленые кнопки с черным крестиком; чтобы уменьшить масштаб, щелкните зеленую кнопку с тире; для просмотра соседних карт щелкайте зеленые стрелки.


METAR-TAF: